createdAt,value
2018-02-08T00:00:13.688Z,32.25
2018-02-08T00:01:16.230Z,32.53
2018-02-08T00:02:18.738Z,33.50
2018-02-08T00:03:21.228Z,36.30
2018-02-08T00:04:23.735Z,34.25
2018-02-08T00:05:26.210Z,34.13
2018-02-08T00:06:28.678Z,33.22
2018-02-08T00:07:31.160Z,33.65
2018-02-08T00:08:33.653Z,34.72
2018-02-08T00:09:36.122Z,33.83
2018-02-08T00:10:38.606Z,34.85
2018-02-08T00:11:41.080Z,33.50
2018-02-08T00:12:43.568Z,32.72
2018-02-08T00:13:46.045Z,32.53
2018-02-08T00:14:48.529Z,32.75
2018-02-08T00:15:50.998Z,33.78
2018-02-08T00:16:53.476Z,34.17
2018-02-08T00:17:55.964Z,31.92
2018-02-08T00:18:58.449Z,34.75
2018-02-08T00:20:00.964Z,34.08
2018-02-08T00:21:03.438Z,31.73
2018-02-08T00:22:05.983Z,32.20
2018-02-08T00:23:08.488Z,32.47
2018-02-08T00:24:10.958Z,31.30
2018-02-08T00:25:13.444Z,33.97
2018-02-08T00:26:15.919Z,33.00
2018-02-08T00:27:18.402Z,31.25
2018-02-08T00:28:20.889Z,33.75
2018-02-08T00:29:23.401Z,32.10
2018-02-08T00:30:25.904Z,32.03
2018-02-08T00:31:28.386Z,31.27
2018-02-08T00:32:30.884Z,33.92
2018-02-08T00:33:33.357Z,30.52
2018-02-08T00:34:35.826Z,32.15
2018-02-08T00:35:38.309Z,31.50
2018-02-08T00:36:40.797Z,31.65
2018-02-08T00:37:43.293Z,32.78
2018-02-08T00:38:45.763Z,32.25
2018-02-08T00:39:48.231Z,33.13
2018-02-08T00:40:50.707Z,33.00
2018-02-08T00:41:53.178Z,32.00
2018-02-08T00:42:55.665Z,32.30
2018-02-08T00:43:58.168Z,32.90
2018-02-08T00:45:00.656Z,33.67
2018-02-08T00:46:03.144Z,34.33
2018-02-08T00:47:05.637Z,33.85
2018-02-08T00:48:08.107Z,33.75
2018-02-08T00:49:10.598Z,34.97
2018-02-08T00:50:13.070Z,33.13
2018-02-08T00:51:15.546Z,33.38
2018-02-08T00:52:18.054Z,31.12
2018-02-08T00:53:20.541Z,32.30
2018-02-08T00:54:23.031Z,32.42
2018-02-08T00:55:25.519Z,34.00
2018-02-08T00:56:27.986Z,31.62
2018-02-08T00:57:30.455Z,32.22
2018-02-08T00:58:32.950Z,31.90
2018-02-08T00:59:35.438Z,33.40
2018-02-08T01:00:37.925Z,33.05
2018-02-08T01:01:40.412Z,32.40
2018-02-08T01:02:42.892Z,30.77
2018-02-08T01:03:45.373Z,30.83
2018-02-08T01:04:47.843Z,32.80
2018-02-08T01:05:50.314Z,32.72
2018-02-08T01:06:52.794Z,31.90
2018-02-08T01:07:55.274Z,33.35
2018-02-08T01:08:57.765Z,33.00
2018-02-08T01:10:00.252Z,32.10
2018-02-08T01:11:02.741Z,31.48
2018-02-08T01:12:05.216Z,32.92
2018-02-08T01:13:07.718Z,32.50
2018-02-08T01:14:10.200Z,34.13
2018-02-08T01:15:12.685Z,32.50
2018-02-08T01:16:15.178Z,31.35
2018-02-08T01:17:17.691Z,32.35
2018-02-08T01:18:20.175Z,32.78
2018-02-08T01:19:22.645Z,32.65
2018-02-08T01:20:25.125Z,31.70
2018-02-08T01:21:27.599Z,30.40
2018-02-08T01:22:30.075Z,32.60
2018-02-08T01:23:32.546Z,32.55
2018-02-08T01:24:35.041Z,31.73
2018-02-08T01:25:37.528Z,31.50
2018-02-08T01:26:40.016Z,33.13
2018-02-08T01:27:42.509Z,31.95
2018-02-08T01:28:44.982Z,34.95
2018-02-08T01:29:47.497Z,34.40
2018-02-08T01:30:49.965Z,32.10
2018-02-08T01:31:52.504Z,31.60
2018-02-08T01:32:54.958Z,32.65
2018-02-08T01:33:57.435Z,32.35
2018-02-08T01:34:59.914Z,34.08
2018-02-08T01:36:02.409Z,31.48
2018-02-08T01:37:04.881Z,34.30
2018-02-08T01:38:07.354Z,30.33
2018-02-08T01:39:09.832Z,32.53
2018-02-08T01:40:12.312Z,32.03
2018-02-08T01:41:14.791Z,33.95
2018-02-08T01:42:17.258Z,31.98
2018-02-08T01:43:19.747Z,34.13
2018-02-08T01:44:22.236Z,33.63
2018-02-08T01:45:24.717Z,34.50
2018-02-08T01:46:27.207Z,31.83
2018-02-08T01:47:29.687Z,34.08
2018-02-08T01:48:32.159Z,33.60
2018-02-08T01:49:45.533Z,32.13
2018-02-08T01:50:48.017Z,32.00
2018-02-08T01:51:50.490Z,31.73
2018-02-08T01:52:52.962Z,33.28
2018-02-08T01:53:55.436Z,33.50
2018-02-08T01:54:58.030Z,32.03
2018-02-08T01:56:00.499Z,30.83
2018-02-08T01:57:03.016Z,31.05
2018-02-08T01:58:05.509Z,31.92
2018-02-08T01:59:07.978Z,30.90
2018-02-08T02:00:10.473Z,29.25
2018-02-08T02:01:12.946Z,32.10
2018-02-08T02:02:15.439Z,30.52
2018-02-08T02:03:17.936Z,32.30
2018-02-08T02:04:20.411Z,32.47
2018-02-08T02:05:22.894Z,32.30
2018-02-08T02:06:25.381Z,31.37
2018-02-08T02:07:27.850Z,31.45
2018-02-08T02:08:30.338Z,30.80
2018-02-08T02:09:32.807Z,31.95
2018-02-08T02:10:35.293Z,31.02
2018-02-08T02:11:37.784Z,31.73
2018-02-08T02:12:40.255Z,31.92
2018-02-08T02:13:42.719Z,31.23
2018-02-08T02:14:45.191Z,30.45
2018-02-08T02:15:47.668Z,32.03
2018-02-08T02:16:50.153Z,30.42
2018-02-08T02:17:52.623Z,30.52
2018-02-08T02:18:55.141Z,30.40
2018-02-08T02:19:57.658Z,29.77
2018-02-08T02:21:00.189Z,28.83
2018-02-08T02:22:02.660Z,30.17
2018-02-08T02:23:05.127Z,30.70
2018-02-08T02:24:07.595Z,30.55
2018-02-08T02:25:10.078Z,30.40
2018-02-08T02:26:12.585Z,30.58
2018-02-08T02:27:15.073Z,29.83
2018-02-08T02:28:17.542Z,32.35
2018-02-08T02:29:20.045Z,30.73
2018-02-08T02:30:22.538Z,32.92
2018-02-08T02:31:25.074Z,33.20
2018-02-08T02:32:27.547Z,32.15
2018-02-08T02:33:30.029Z,32.20
2018-02-08T02:34:32.503Z,30.90
2018-02-08T02:35:35.001Z,32.83
2018-02-08T02:36:37.470Z,31.20
2018-02-08T02:37:39.953Z,29.40
2018-02-08T02:38:42.477Z,30.83
2018-02-08T02:39:44.969Z,30.67
2018-02-08T02:40:47.442Z,32.75
2018-02-08T02:41:49.915Z,32.03
2018-02-08T02:42:52.392Z,32.80
2018-02-08T02:43:54.916Z,31.75
2018-02-08T02:44:57.364Z,32.38
2018-02-08T02:45:59.834Z,31.83
2018-02-08T02:47:02.328Z,31.58
2018-02-08T02:48:04.809Z,31.48
2018-02-08T02:49:07.294Z,34.95
2018-02-08T02:50:09.816Z,32.20
2018-02-08T02:51:12.310Z,33.10
2018-02-08T02:52:14.801Z,33.28
2018-02-08T02:53:17.302Z,31.87
2018-02-08T02:54:19.790Z,31.60
2018-02-08T02:55:22.273Z,30.83
2018-02-08T02:56:24.751Z,30.75
2018-02-08T02:57:27.237Z,32.53
2018-02-08T02:58:29.713Z,32.92
2018-02-08T02:59:32.213Z,32.80
2018-02-08T03:00:34.683Z,30.73
2018-02-08T03:01:37.160Z,31.23
2018-02-08T03:02:39.660Z,31.67
2018-02-08T03:03:42.132Z,33.03
2018-02-08T03:04:44.620Z,33.25
2018-02-08T03:05:47.114Z,30.52
2018-02-08T03:06:49.588Z,30.58
2018-02-08T03:07:52.063Z,32.08
2018-02-08T03:08:54.544Z,32.42
2018-02-08T03:09:57.037Z,32.72
2018-02-08T03:10:59.528Z,32.33
2018-02-08T03:12:02.009Z,32.08
2018-02-08T03:13:04.506Z,30.45
2018-02-08T03:14:06.975Z,32.92
2018-02-08T03:15:09.443Z,32.38
2018-02-08T03:16:11.918Z,33.42
2018-02-08T03:17:14.396Z,33.90
2018-02-08T03:18:16.862Z,30.30
2018-02-08T03:19:19.343Z,31.45
2018-02-08T03:20:21.848Z,31.83
2018-02-08T03:21:24.322Z,30.15
2018-02-08T03:22:26.813Z,30.25
2018-02-08T03:23:29.548Z,31.65
2018-02-08T03:24:32.085Z,31.55
2018-02-08T03:25:34.568Z,31.75
2018-02-08T03:26:37.042Z,35.50
2018-02-08T03:27:39.533Z,32.63
2018-02-08T03:28:42.022Z,32.95
2018-02-08T03:29:44.498Z,34.78
2018-02-08T03:30:47.471Z,31.77
2018-02-08T03:31:49.971Z,32.25
2018-02-08T03:32:52.447Z,33.25
2018-02-08T03:33:54.942Z,32.85
2018-02-08T03:34:57.433Z,32.58
2018-02-08T03:35:59.927Z,32.00
2018-02-08T03:37:02.420Z,32.20
2018-02-08T03:38:04.904Z,34.40
2018-02-08T03:39:07.375Z,33.65
2018-02-08T03:40:09.853Z,32.75
2018-02-08T03:41:12.344Z,31.52
2018-02-08T03:42:14.839Z,31.52
2018-02-08T03:43:17.339Z,32.88
2018-02-08T03:44:19.814Z,34.20
2018-02-08T03:45:22.287Z,31.70
2018-02-08T03:46:24.776Z,33.33
2018-02-08T03:47:27.290Z,32.42
2018-02-08T03:48:29.762Z,30.60
2018-02-08T03:49:32.248Z,32.15
2018-02-08T03:50:34.735Z,31.50
2018-02-08T03:51:37.209Z,31.50
2018-02-08T03:52:39.713Z,31.60
2018-02-08T03:53:42.221Z,31.20
2018-02-08T03:54:44.694Z,32.72
2018-02-08T03:55:47.210Z,31.05
2018-02-08T03:56:49.686Z,34.00
2018-02-08T03:57:52.176Z,30.00
2018-02-08T03:58:54.651Z,30.25
2018-02-08T03:59:57.146Z,30.50
2018-02-08T04:00:59.618Z,31.35
2018-02-08T04:02:02.088Z,30.80
2018-02-08T04:03:04.635Z,31.80
2018-02-08T04:04:07.140Z,28.92
2018-02-08T04:05:09.615Z,33.05
2018-02-08T04:06:12.104Z,30.60
2018-02-08T04:07:14.585Z,30.42
2018-02-08T04:08:17.097Z,30.35
2018-02-08T04:09:19.570Z,30.58
2018-02-08T04:10:22.046Z,30.70
2018-02-08T04:11:24.517Z,29.05
2018-02-08T04:12:27.068Z,29.33
2018-02-08T04:13:29.566Z,30.23
2018-02-08T04:14:32.039Z,30.33
2018-02-08T04:15:34.519Z,31.37
2018-02-08T04:16:37.010Z,31.45
2018-02-08T04:17:39.500Z,31.02
2018-02-08T04:18:41.991Z,30.55
2018-02-08T04:19:44.462Z,30.95
2018-02-08T04:20:46.998Z,31.65
2018-02-08T04:21:49.470Z,29.63
2018-02-08T04:22:52.022Z,30.98
2018-02-08T04:23:54.541Z,32.15
2018-02-08T04:24:57.022Z,32.10
2018-02-08T04:25:59.516Z,29.08
2018-02-08T04:27:02.009Z,31.12
2018-02-08T04:28:04.546Z,32.75
2018-02-08T04:29:07.066Z,32.15
2018-02-08T04:30:09.539Z,32.20
2018-02-08T04:31:12.024Z,32.35
2018-02-08T04:32:14.516Z,34.60
2018-02-08T04:33:17.013Z,32.50
2018-02-08T04:34:19.528Z,31.50
2018-02-08T04:35:22.003Z,32.35
2018-02-08T04:36:24.480Z,33.72
2018-02-08T04:37:26.969Z,30.08
2018-02-08T04:38:41.246Z,29.73
2018-02-08T04:39:55.454Z,30.00
2018-02-08T05:23:52.685Z,20.80
2018-02-08T05:24:55.155Z,24.77
2018-02-08T05:25:57.647Z,29.02
2018-02-08T05:27:00.115Z,29.75
2018-02-08T05:28:02.640Z,31.85
2018-02-08T05:29:05.138Z,31.40
2018-02-08T05:30:07.616Z,33.70
2018-02-08T05:31:10.082Z,32.55
2018-02-08T05:32:12.566Z,31.92
2018-02-08T05:33:15.088Z,31.62
2018-02-08T05:34:17.605Z,34.28
2018-02-08T05:35:20.093Z,31.80
2018-02-08T05:36:22.678Z,34.05
2018-02-08T05:37:25.137Z,33.60
2018-02-08T05:38:27.611Z,33.70
2018-02-08T05:39:30.089Z,34.80
2018-02-08T05:40:32.577Z,34.67
2018-02-08T05:41:35.043Z,36.13
2018-02-08T05:42:37.532Z,35.40
2018-02-08T05:43:40.004Z,35.25
2018-02-08T05:44:42.475Z,34.85
2018-02-08T05:45:44.960Z,35.17
2018-02-08T05:46:47.457Z,33.88
2018-02-08T05:47:49.943Z,33.15
2018-02-08T05:48:52.437Z,34.28
2018-02-08T05:49:54.907Z,33.63
2018-02-08T05:50:57.400Z,32.28
2018-02-08T05:51:59.882Z,33.50
2018-02-08T05:53:02.355Z,33.92
2018-02-08T05:54:04.839Z,33.47
2018-02-08T05:55:07.327Z,34.20
2018-02-08T05:56:09.833Z,33.13
2018-02-08T05:57:12.325Z,32.95
2018-02-08T05:58:14.822Z,32.72
2018-02-08T05:59:17.317Z,33.58
2018-02-08T06:00:19.802Z,32.60
2018-02-08T06:01:22.281Z,31.85
2018-02-08T06:02:24.824Z,33.25
2018-02-08T06:03:27.294Z,33.88
2018-02-08T06:04:29.767Z,33.22
2018-02-08T06:05:32.243Z,32.25
2018-02-08T06:06:34.717Z,33.22
2018-02-08T06:07:37.205Z,33.75
2018-02-08T06:08:39.688Z,32.42
2018-02-08T06:09:42.189Z,32.65
2018-02-08T06:10:44.677Z,32.88
2018-02-08T06:11:47.154Z,35.30
2018-02-08T06:12:49.659Z,33.63
2018-02-08T06:13:52.142Z,32.63
2018-02-08T06:14:54.638Z,32.92
2018-02-08T06:15:57.124Z,33.78
2018-02-08T06:16:59.605Z,32.97
2018-02-08T06:18:02.094Z,31.60
2018-02-08T06:19:04.563Z,33.40
2018-02-08T06:20:07.046Z,34.40
2018-02-08T06:21:09.530Z,36.33
2018-02-08T06:22:12.004Z,33.42
2018-02-08T06:23:14.478Z,37.33
2018-02-08T06:24:16.980Z,37.35
2018-02-08T06:25:19.443Z,34.65
2018-02-08T06:26:21.922Z,44.20
2018-02-08T06:27:24.411Z,40.78
2018-02-08T06:28:26.912Z,42.20
2018-02-08T06:29:29.424Z,53.78
2018-02-08T06:30:31.934Z,65.78
2018-02-08T06:31:34.406Z,61.85
2018-02-08T06:32:36.898Z,55.72
2018-02-08T06:33:39.389Z,42.62
2018-02-08T06:34:41.866Z,42.62
2018-02-08T06:35:44.343Z,41.55
2018-02-08T06:36:46.826Z,38.15
2018-02-08T06:37:49.298Z,40.15
2018-02-08T06:38:51.766Z,39.60
2018-02-08T06:39:54.256Z,38.75
2018-02-08T06:40:56.733Z,39.95
2018-02-08T06:42:00.100Z,41.22
2018-02-08T06:43:02.601Z,42.53
2018-02-08T06:44:05.115Z,42.40
2018-02-08T06:45:07.599Z,45.38
2018-02-08T06:46:10.097Z,51.53
2018-02-08T06:47:12.612Z,50.00
2018-02-08T06:48:15.084Z,51.95
2018-02-08T06:49:17.608Z,57.03
2018-02-08T06:50:20.117Z,57.70
2018-02-08T06:51:22.594Z,44.60
2018-02-08T06:52:25.116Z,46.83
2018-02-08T06:53:27.627Z,51.90
2018-02-08T06:54:30.109Z,45.63
2018-02-08T06:55:32.597Z,45.42
2018-02-08T06:56:35.090Z,44.72
2018-02-08T06:57:37.578Z,47.30
2018-02-08T06:58:40.071Z,47.92
2018-02-08T06:59:42.560Z,44.88
2018-02-08T07:00:45.054Z,50.25
2018-02-08T07:01:47.539Z,47.53
2018-02-08T07:02:50.064Z,47.72
2018-02-08T07:03:52.617Z,46.90
2018-02-08T07:04:55.054Z,45.38
2018-02-08T07:05:57.553Z,45.60
2018-02-08T07:07:00.057Z,44.40
2018-02-08T07:08:02.648Z,41.35
2018-02-08T07:09:05.120Z,39.42
2018-02-08T07:10:07.591Z,38.42
2018-02-08T07:11:10.433Z,37.90
2018-02-08T07:12:12.910Z,36.67
2018-02-08T07:13:15.394Z,37.40
2018-02-08T07:14:17.877Z,34.38
2018-02-08T07:15:20.385Z,34.20
2018-02-08T07:16:22.860Z,34.40
2018-02-08T07:17:25.350Z,35.88
2018-02-08T07:18:27.838Z,38.38
2018-02-08T07:19:30.318Z,33.80
2018-02-08T07:20:32.805Z,37.53
2018-02-08T07:21:35.287Z,39.05
2018-02-08T07:22:38.081Z,40.15
2018-02-08T07:23:40.626Z,39.78
2018-02-08T07:24:43.113Z,36.88
2018-02-08T07:25:45.607Z,38.28
2018-02-08T07:26:48.090Z,36.10
2018-02-08T07:27:50.572Z,38.10
2018-02-08T07:28:53.056Z,36.08
2018-02-08T07:29:55.524Z,37.70
2018-02-08T07:30:57.994Z,36.35
2018-02-08T07:32:00.489Z,35.47
2018-02-08T07:33:02.954Z,36.90
2018-02-08T07:34:05.444Z,37.80
2018-02-08T07:35:07.927Z,37.53
2018-02-08T07:36:10.440Z,36.70
2018-02-08T07:37:12.925Z,36.60
2018-02-08T07:38:15.415Z,33.83
2018-02-08T07:39:17.904Z,37.67
2018-02-08T07:40:20.409Z,34.72
2018-02-08T07:41:22.900Z,36.00
2018-02-08T07:42:25.413Z,36.80
2018-02-08T07:43:27.920Z,36.03
2018-02-08T07:44:30.406Z,39.38
2018-02-08T07:45:32.886Z,37.75
2018-02-08T07:46:35.350Z,35.85
2018-02-08T07:47:37.830Z,34.03
2018-02-08T07:48:40.341Z,35.58
2018-02-08T07:49:42.815Z,35.72
2018-02-08T07:50:45.296Z,37.33
2018-02-08T07:51:47.785Z,33.60
2018-02-08T07:52:50.301Z,33.70
2018-02-08T07:53:52.785Z,34.60
2018-02-08T07:54:55.267Z,35.22
2018-02-08T07:55:57.738Z,32.70
2018-02-08T07:57:00.257Z,34.05
2018-02-08T07:58:02.730Z,32.95
2018-02-08T07:59:05.225Z,33.65
2018-02-08T08:00:07.755Z,30.00
2018-02-08T08:01:10.226Z,32.90
2018-02-08T08:02:12.716Z,35.60
2018-02-08T08:03:15.183Z,31.85
2018-02-08T08:04:17.666Z,29.60
2018-02-08T08:05:20.201Z,31.08
2018-02-08T08:06:22.684Z,33.35
2018-02-08T08:07:25.242Z,30.30
2018-02-08T08:08:27.706Z,30.08
2018-02-08T08:09:30.169Z,31.33
2018-02-08T08:10:32.653Z,31.02
2018-02-08T08:11:35.137Z,31.70
2018-02-08T08:12:37.615Z,30.08
2018-02-08T08:13:40.109Z,30.20
2018-02-08T08:14:42.598Z,29.95
2018-02-08T08:15:45.082Z,32.42
2018-02-08T08:16:47.546Z,31.77
2018-02-08T08:17:50.128Z,29.73
2018-02-08T08:18:52.646Z,30.30
2018-02-08T08:19:55.121Z,30.42
2018-02-08T08:20:57.615Z,30.95
2018-02-08T08:22:00.169Z,30.33
2018-02-08T08:23:02.682Z,29.85
2018-02-08T08:24:05.154Z,30.42
2018-02-08T08:25:07.714Z,30.52
2018-02-08T08:26:10.193Z,29.55
2018-02-08T08:27:12.658Z,29.67
2018-02-08T08:28:15.146Z,30.58
2018-02-08T08:29:17.645Z,30.45
2018-02-08T08:30:20.144Z,31.15
2018-02-08T08:31:22.626Z,29.67
2018-02-08T08:32:25.109Z,30.02
2018-02-08T08:33:27.991Z,30.00
2018-02-08T08:34:30.499Z,30.42
2018-02-08T08:35:33.007Z,30.10
2018-02-08T08:36:35.492Z,29.27
2018-02-08T08:37:37.969Z,27.92
2018-02-08T08:38:40.485Z,30.67
2018-02-08T08:39:43.075Z,32.58
2018-02-08T08:40:45.595Z,29.87
2018-02-08T08:41:48.083Z,30.17
2018-02-08T08:42:53.604Z,33.50
2018-02-08T08:43:56.395Z,29.75
2018-02-08T08:44:58.863Z,29.27
2018-02-08T08:46:05.125Z,29.80
2018-02-08T08:47:07.664Z,28.50
2018-02-08T08:48:10.126Z,30.17
2018-02-08T08:49:12.598Z,30.80
2018-02-08T08:50:15.080Z,28.90
2018-02-08T08:51:17.561Z,28.62
2018-02-08T08:52:20.046Z,30.62
2018-02-08T08:53:22.529Z,30.80
2018-02-08T08:54:25.015Z,30.27
2018-02-08T08:55:27.596Z,27.65
2018-02-08T08:56:30.148Z,30.85
2018-02-08T08:57:32.652Z,29.17
2018-02-08T08:58:35.129Z,29.77
2018-02-08T08:59:37.598Z,30.45
2018-02-08T09:00:40.108Z,30.52
2018-02-08T09:01:42.593Z,30.67
2018-02-08T09:02:45.070Z,31.08
2018-02-08T09:03:47.664Z,29.27
2018-02-08T09:04:50.225Z,32.00
2018-02-08T09:05:52.722Z,31.92
2018-02-08T09:06:55.207Z,29.23
2018-02-08T09:07:57.694Z,30.42
2018-02-08T09:09:00.189Z,29.63
2018-02-08T09:10:02.679Z,31.80
2018-02-08T09:11:05.162Z,32.30
2018-02-08T09:12:07.659Z,29.58
2018-02-08T09:13:10.124Z,30.08
2018-02-08T09:14:12.604Z,32.47
2018-02-08T09:15:15.183Z,32.67
2018-02-08T09:16:17.676Z,33.40
2018-02-08T09:17:20.157Z,31.75
2018-02-08T09:18:22.774Z,32.20
2018-02-08T09:19:25.283Z,31.55
2018-02-08T09:20:27.764Z,33.75
2018-02-08T09:21:30.224Z,34.67
2018-02-08T09:22:32.694Z,32.08
2018-02-08T09:23:35.190Z,34.60
2018-02-08T09:24:37.690Z,32.05
2018-02-08T09:25:40.177Z,33.78
2018-02-08T09:26:42.649Z,33.28
2018-02-08T09:27:45.151Z,34.45
2018-02-08T09:28:47.642Z,33.70
2018-02-08T09:29:50.139Z,33.45
2018-02-08T09:30:52.794Z,32.42
2018-02-08T09:31:55.357Z,33.13
2018-02-08T09:32:57.836Z,32.70
2018-02-08T09:34:00.312Z,31.67
2018-02-08T09:35:02.927Z,34.33
2018-02-08T09:36:05.416Z,34.42
2018-02-08T09:37:07.909Z,32.38
2018-02-08T09:38:10.434Z,32.63
2018-02-08T09:39:12.896Z,35.28
2018-02-08T09:40:15.382Z,33.10
2018-02-08T09:41:17.850Z,41.08
2018-02-08T09:42:20.334Z,43.85
2018-02-08T09:43:22.826Z,38.50
2018-02-08T09:44:26.221Z,38.55
2018-02-08T09:45:32.746Z,35.75
2018-02-08T09:46:36.866Z,33.70
2018-02-08T09:47:39.334Z,31.92
2018-02-08T09:48:41.964Z,32.78
2018-02-08T09:49:44.447Z,33.45
2018-02-08T09:50:50.963Z,41.88
2018-02-08T09:51:54.251Z,46.65
2018-02-08T09:52:56.715Z,33.28
2018-02-08T09:53:59.193Z,39.92
2018-02-08T09:55:01.675Z,36.45
2018-02-08T09:56:04.143Z,35.15
2018-02-08T09:57:06.698Z,33.35
2018-02-08T09:58:09.148Z,33.55
2018-02-08T09:59:11.614Z,34.78
2018-02-08T10:00:14.085Z,34.15
2018-02-08T10:01:16.581Z,35.35
2018-02-08T10:02:19.063Z,35.65
2018-02-08T10:03:21.545Z,36.95
2018-02-08T10:04:24.062Z,37.30
2018-02-08T10:05:26.557Z,34.72
2018-02-08T10:06:29.031Z,37.42
2018-02-08T10:07:31.537Z,34.95
2018-02-08T10:08:34.002Z,35.92
2018-02-08T10:09:36.471Z,33.63
2018-02-08T10:10:38.947Z,33.13
2018-02-08T10:11:41.443Z,34.75
2018-02-08T10:12:43.923Z,33.30
2018-02-08T10:13:46.405Z,36.25
2018-02-08T10:14:48.886Z,35.15
2018-02-08T10:15:51.372Z,35.85
2018-02-08T10:16:53.862Z,34.47
2018-02-08T10:17:56.533Z,32.40
2018-02-08T10:18:59.050Z,35.15
2018-02-08T10:20:03.071Z,35.30
2018-02-08T10:21:06.203Z,35.17
2018-02-08T10:22:08.800Z,36.60
2018-02-08T10:23:11.299Z,35.78
2018-02-08T10:24:13.770Z,35.05
2018-02-08T10:25:16.249Z,35.40
2018-02-08T10:26:18.742Z,34.25
2018-02-08T10:27:21.230Z,35.20
2018-02-08T10:28:23.707Z,35.47
2018-02-08T10:29:26.194Z,33.95
2018-02-08T10:30:28.752Z,32.95
2018-02-08T10:31:31.238Z,36.47
2018-02-08T10:32:33.707Z,35.50
2018-02-08T10:33:36.180Z,37.70
2018-02-08T10:34:38.698Z,36.40
2018-02-08T10:35:41.377Z,35.80
2018-02-08T10:36:43.883Z,33.97
2018-02-08T10:37:46.406Z,36.35
2018-02-08T10:38:48.945Z,36.45
2018-02-08T10:39:51.437Z,34.78
2018-02-08T10:40:53.903Z,36.45
2018-02-08T10:41:56.366Z,36.40
2018-02-08T10:42:58.877Z,36.53
2018-02-08T10:44:01.354Z,36.20
2018-02-08T10:45:03.842Z,36.60
2018-02-08T10:46:06.412Z,36.72
2018-02-08T10:47:08.879Z,37.33
2018-02-08T10:48:11.386Z,37.13
2018-02-08T10:49:13.866Z,37.80
2018-02-08T10:50:16.402Z,38.83
2018-02-08T10:51:18.863Z,36.78
2018-02-08T10:52:21.376Z,38.72
2018-02-08T10:53:23.879Z,35.60
2018-02-08T10:54:26.377Z,37.30
2018-02-08T10:55:28.867Z,36.90
2018-02-08T10:56:31.463Z,38.05
2018-02-08T10:57:33.934Z,38.08
2018-02-08T10:58:36.425Z,52.33
2018-02-08T10:59:38.906Z,41.05
2018-02-08T11:00:41.384Z,40.92
2018-02-08T11:01:43.865Z,37.30
2018-02-08T11:02:46.345Z,38.20
2018-02-08T11:03:48.811Z,37.10
2018-02-08T11:04:51.307Z,39.70
2018-02-08T11:05:53.783Z,36.80
2018-02-08T11:06:56.273Z,39.20
2018-02-08T11:07:58.754Z,38.83
2018-02-08T11:09:01.227Z,39.35
2018-02-08T11:10:03.694Z,40.22
2018-02-08T11:11:06.181Z,44.92
2018-02-08T11:12:08.663Z,38.92
2018-02-08T11:13:11.150Z,37.85
2018-02-08T11:14:13.650Z,38.38
2018-02-08T11:15:16.143Z,37.10
2018-02-08T11:16:18.633Z,41.20
2018-02-08T11:17:21.104Z,37.90
2018-02-08T11:18:23.575Z,41.60
2018-02-08T11:19:26.049Z,39.30
2018-02-08T11:20:28.534Z,38.17
2018-02-08T11:21:31.013Z,40.90
2018-02-08T11:22:33.497Z,38.67
2018-02-08T11:23:35.981Z,40.15
2018-02-08T11:24:38.455Z,39.22
2018-02-08T11:25:40.937Z,38.78
2018-02-08T11:26:43.416Z,37.63
2018-02-08T11:27:45.909Z,38.67
2018-02-08T11:28:48.401Z,39.00
2018-02-08T11:29:50.888Z,40.42
2018-02-08T11:30:53.386Z,40.08
2018-02-08T11:31:55.854Z,40.63
2018-02-08T11:32:58.332Z,39.50
2018-02-08T11:34:00.824Z,39.78
2018-02-08T11:35:03.304Z,41.03
2018-02-08T11:36:05.782Z,43.67
2018-02-08T11:37:08.267Z,39.28
2018-02-08T11:38:10.743Z,42.42
2018-02-08T11:39:13.309Z,40.95
2018-02-08T11:40:15.881Z,41.10
2018-02-08T11:41:18.376Z,37.45
2018-02-08T11:42:20.864Z,38.83
2018-02-08T11:43:23.372Z,41.37
2018-02-08T11:44:25.905Z,36.90
2018-02-08T11:45:28.664Z,40.58
2018-02-08T11:46:31.164Z,42.20
2018-02-08T11:47:33.655Z,39.10
2018-02-08T11:48:36.141Z,40.28
2018-02-08T11:49:38.637Z,38.63
2018-02-08T11:50:41.123Z,38.35
2018-02-08T11:51:43.704Z,41.15
2018-02-08T11:52:46.174Z,40.63
2018-02-08T11:53:48.683Z,38.97
2018-02-08T11:54:51.168Z,44.95
2018-02-08T11:55:53.679Z,42.47
2018-02-08T11:56:56.849Z,42.88
2018-02-08T11:57:59.342Z,44.95
2018-02-08T11:59:01.850Z,42.33
2018-02-08T12:00:04.341Z,42.62
2018-02-08T12:01:06.837Z,41.10
2018-02-08T12:02:09.329Z,39.45
2018-02-08T12:03:11.929Z,39.63
2018-02-08T12:04:14.336Z,40.75
2018-02-08T12:05:16.835Z,41.60
2018-02-08T12:06:19.383Z,38.42
2018-02-08T12:07:21.901Z,38.85
2018-02-08T12:08:24.402Z,40.15
2018-02-08T12:09:26.896Z,40.05
2018-02-08T12:10:29.371Z,40.17
2018-02-08T12:11:31.853Z,42.03
2018-02-08T12:12:34.322Z,40.03
2018-02-08T12:13:36.842Z,40.08
2018-02-08T12:14:40.551Z,38.92
2018-02-08T12:15:43.044Z,38.70
2018-02-08T12:16:45.512Z,39.08
2018-02-08T12:17:47.982Z,39.25
2018-02-08T12:18:50.476Z,39.38
2018-02-08T12:19:52.959Z,44.17
2018-02-08T12:20:55.445Z,45.40
2018-02-08T12:21:57.944Z,43.22
2018-02-08T12:23:00.422Z,44.53
2018-02-08T12:24:02.921Z,46.53
2018-02-08T12:25:05.419Z,47.08
2018-02-08T12:26:07.919Z,43.90
2018-02-08T12:27:10.417Z,43.85
2018-02-08T12:28:12.916Z,43.35
2018-02-08T12:29:15.448Z,44.97
2018-02-08T12:30:17.927Z,47.33
2018-02-08T12:31:20.429Z,43.95
2018-02-08T12:32:22.919Z,44.30
2018-02-08T12:33:25.449Z,45.60
2018-02-08T12:34:27.961Z,46.35
2018-02-08T12:35:30.461Z,43.55
2018-02-08T12:36:32.956Z,43.50
2018-02-08T12:37:35.441Z,41.13
2018-02-08T12:38:37.950Z,44.50
2018-02-08T12:39:40.480Z,42.03
2018-02-08T12:40:42.960Z,41.47
2018-02-08T12:41:45.454Z,42.13
2018-02-08T12:42:47.933Z,42.75
2018-02-08T12:43:50.412Z,41.17
2018-02-08T12:44:52.921Z,41.88
2018-02-08T12:45:55.390Z,40.60
2018-02-08T12:46:57.875Z,40.88
2018-02-08T12:48:00.361Z,40.63
2018-02-08T12:49:02.852Z,38.15
2018-02-08T12:50:05.346Z,39.47
2018-02-08T12:51:07.831Z,41.47
2018-02-08T12:52:10.335Z,41.08
2018-02-08T12:53:12.824Z,39.03
2018-02-08T12:54:15.299Z,41.72
2018-02-08T12:55:17.810Z,38.47
2018-02-08T12:56:20.298Z,37.45
2018-02-08T12:57:22.778Z,38.00
2018-02-08T12:58:25.323Z,40.45
2018-02-08T12:59:27.799Z,39.47
2018-02-08T13:00:30.296Z,38.33
2018-02-08T13:01:32.791Z,37.83
2018-02-08T13:02:35.272Z,40.22
2018-02-08T13:03:37.755Z,39.60
2018-02-08T13:04:40.269Z,40.65
2018-02-08T13:05:42.864Z,39.95
2018-02-08T13:06:45.353Z,40.78
2018-02-08T13:07:47.840Z,40.83
2018-02-08T13:08:50.315Z,41.40
2018-02-08T13:09:52.788Z,40.50
2018-02-08T13:10:55.281Z,41.25
2018-02-08T13:11:57.779Z,40.25
2018-02-08T13:13:00.269Z,40.35
2018-02-08T13:14:02.734Z,42.38
2018-02-08T13:15:05.203Z,42.62
2018-02-08T13:16:07.716Z,43.85
2018-02-08T13:17:10.195Z,41.55
2018-02-08T13:18:12.732Z,42.30
2018-02-08T13:19:15.207Z,40.72
2018-02-08T13:20:17.750Z,40.60
2018-02-08T13:21:20.238Z,41.30
2018-02-08T13:22:22.721Z,39.63
2018-02-08T13:23:25.190Z,40.88
2018-02-08T13:24:27.668Z,41.08
2018-02-08T13:25:30.152Z,39.35
2018-02-08T13:26:32.680Z,40.90
2018-02-08T13:27:35.168Z,40.03
2018-02-08T13:28:37.673Z,40.38
2018-02-08T13:29:40.153Z,39.53
2018-02-08T13:30:42.622Z,41.10
2018-02-08T13:31:45.631Z,38.03
2018-02-08T13:32:48.098Z,37.63
2018-02-08T13:33:50.562Z,38.13
2018-02-08T13:34:53.057Z,39.67
2018-02-08T13:35:55.550Z,37.42
2018-02-08T13:36:58.065Z,37.75
2018-02-08T13:38:00.567Z,37.67
2018-02-08T13:39:03.035Z,37.70
2018-02-08T15:07:42.364Z,38.30
2018-02-08T15:08:44.849Z,36.40
2018-02-08T15:09:47.329Z,34.95
2018-02-08T15:10:49.820Z,34.00
2018-02-08T15:11:52.334Z,45.35
2018-02-08T15:12:54.807Z,41.50
2018-02-08T15:13:57.284Z,36.45
2018-02-08T15:14:59.774Z,38.85
2018-02-08T15:16:02.253Z,42.92
2018-02-08T15:17:04.748Z,39.05
2018-02-08T15:18:07.219Z,40.60
2018-02-08T15:19:09.707Z,38.85
2018-02-08T15:20:12.174Z,53.40
2018-02-08T15:21:14.644Z,40.83
2018-02-08T15:22:17.149Z,39.50
2018-02-08T15:23:19.645Z,41.60
2018-02-08T15:24:22.152Z,37.15
2018-02-08T15:25:24.631Z,38.13
2018-02-08T15:26:27.155Z,41.90
2018-02-08T15:27:29.659Z,43.42
2018-02-08T15:28:32.128Z,48.58
2018-02-08T15:29:34.617Z,39.22
2018-02-08T15:30:37.086Z,37.90
2018-02-08T15:31:39.568Z,38.63
2018-02-08T15:32:42.084Z,38.78
2018-02-08T15:33:44.574Z,37.25
2018-02-08T15:34:47.065Z,39.15
2018-02-08T15:35:49.553Z,39.05